createdAt,value
2023-01-21T00:04:38.257Z,5.85
2023-01-21T00:09:42.577Z,4.37
2023-01-21T00:14:48.453Z,3.75
2023-01-21T00:20:09.338Z,3.75
2023-01-21T00:25:16.844Z,3.70
2023-01-21T00:30:25.120Z,3.78
2023-01-21T00:35:43.944Z,3.95
2023-01-21T00:40:48.471Z,3.47
2023-01-21T00:45:54.482Z,3.03
2023-01-21T00:51:01.013Z,3.80
2023-01-21T00:56:08.180Z,2.83
2023-01-21T01:01:16.436Z,3.13
2023-01-21T01:06:22.679Z,2.95
2023-01-21T01:11:28.928Z,3.05
2023-01-21T01:16:34.835Z,3.28
2023-01-21T01:21:39.254Z,3.25
2023-01-21T01:26:43.773Z,3.40
2023-01-21T01:31:49.608Z,2.83
2023-01-21T01:41:57.796Z,2.45
2023-01-21T01:47:06.062Z,2.35
2023-01-21T01:52:13.102Z,2.60
2023-01-21T01:57:22.067Z,2.30
2023-01-21T02:02:27.863Z,2.42
2023-01-21T02:07:39.592Z,2.08
2023-01-21T02:12:45.506Z,1.90
2023-01-21T02:18:06.649Z,2.03
2023-01-21T02:23:18.434Z,1.90
2023-01-21T02:29:00.609Z,1.58
2023-01-21T02:34:15.510Z,1.70
2023-01-21T02:39:36.220Z,1.83
2023-01-21T02:44:42.669Z,1.30
2023-01-21T02:49:53.859Z,1.60
2023-01-21T02:54:59.063Z,1.52
2023-01-21T03:00:06.482Z,1.60
2023-01-21T03:05:24.180Z,1.10
2023-01-21T03:10:35.220Z,1.02
2023-01-21T03:16:03.588Z,1.38
2023-01-21T03:21:13.933Z,1.30
2023-01-21T03:26:22.474Z,0.98
2023-01-21T03:31:31.917Z,1.30
2023-01-21T03:36:43.279Z,1.50
2023-01-21T03:41:47.807Z,1.58
2023-01-21T03:47:03.055Z,1.40
2023-01-21T03:52:11.245Z,1.75
2023-01-21T03:57:15.579Z,1.50
2023-01-21T04:02:20.668Z,1.38
2023-01-21T04:07:27.618Z,1.30
2023-01-21T04:12:32.038Z,1.30
2023-01-21T04:17:36.287Z,1.20
2023-01-21T04:22:41.963Z,1.50
2023-01-21T04:27:46.251Z,1.23
2023-01-21T04:32:50.702Z,1.30
2023-01-21T04:37:56.491Z,1.27
2023-01-21T04:48:04.852Z,1.30
2023-01-21T04:53:10.661Z,1.30
2023-01-21T05:03:19.302Z,1.80
2023-01-21T05:08:25.606Z,3.43
2023-01-21T05:18:33.942Z,3.00
2023-01-21T05:23:39.696Z,3.00
2023-01-21T05:28:43.943Z,3.20
2023-01-21T05:33:48.403Z,3.25
2023-01-21T05:38:54.097Z,3.97
2023-01-21T05:43:58.371Z,4.10
2023-01-21T05:49:02.733Z,4.22
2023-01-21T05:54:08.682Z,5.38
2023-01-21T05:59:13.374Z,4.85
2023-01-21T06:04:17.745Z,9.35
2023-01-21T06:09:23.660Z,18.20
2023-01-21T06:14:28.073Z,20.27
2023-01-21T06:19:32.395Z,13.73
2023-01-21T06:24:38.203Z,8.90
2023-01-21T06:29:42.540Z,8.88
2023-01-21T06:34:48.818Z,10.65
2023-01-21T06:39:55.821Z,11.43
2023-01-21T06:50:04.280Z,10.15
2023-01-21T06:55:11.058Z,9.63
2023-01-21T07:00:16.510Z,9.98
2023-01-21T07:05:21.264Z,12.20
2023-01-21T07:10:27.452Z,11.88
2023-01-21T07:15:31.971Z,13.43
2023-01-21T07:20:36.529Z,13.73
2023-01-21T07:25:43.078Z,13.38
2023-01-21T07:30:48.122Z,16.20
2023-01-21T07:35:52.795Z,16.03
2023-01-21T07:40:59.040Z,13.88
2023-01-21T07:46:03.650Z,13.23
2023-01-21T07:51:08.512Z,13.23
2023-01-21T07:56:15.092Z,10.63
2023-01-21T08:01:19.852Z,9.85
2023-01-21T08:06:24.779Z,9.50
2023-01-21T08:11:30.800Z,8.23
2023-01-21T08:16:35.553Z,7.95
2023-01-21T08:21:40.405Z,8.30
2023-01-21T08:26:46.734Z,8.00
2023-01-21T08:31:52.496Z,7.63
2023-01-21T08:42:02.752Z,6.88
2023-01-21T08:47:07.371Z,6.75
2023-01-21T08:52:12.266Z,17.08
2023-01-21T08:57:20.216Z,7.75
2023-01-21T09:02:24.964Z,9.23
2023-01-21T09:07:30.391Z,12.10
2023-01-21T09:12:38.399Z,8.48
2023-01-21T09:18:33.744Z,16.00
2023-01-21T09:24:04.703Z,7.82
2023-01-21T09:29:11.385Z,7.00
2023-01-21T09:34:18.447Z,7.07
2023-01-21T09:39:23.035Z,9.10
2023-01-21T09:44:33.476Z,5.43
2023-01-21T09:49:42.599Z,4.43
2023-01-21T09:54:47.219Z,3.75
2023-01-21T10:00:05.523Z,6.35
2023-01-21T10:05:40.535Z,4.00
2023-01-21T10:10:51.720Z,4.05
2023-01-21T10:16:06.635Z,4.20
2023-01-21T10:21:18.163Z,4.18
2023-01-21T10:26:23.578Z,3.80
2023-01-21T10:31:32.049Z,4.30
2023-01-21T10:36:53.470Z,4.80
2023-01-21T10:42:09.971Z,4.30
2023-01-21T10:47:27.783Z,3.30
2023-01-21T10:52:40.102Z,3.40
2023-01-21T10:57:56.696Z,4.00
2023-01-21T11:03:06.327Z,5.53
2023-01-21T11:08:20.151Z,8.90
2023-01-21T11:13:24.691Z,5.63
2023-01-21T11:18:34.752Z,7.90
2023-01-21T11:23:40.566Z,4.63
2023-01-21T11:33:52.825Z,5.37
2023-01-21T11:39:03.374Z,4.00
2023-01-21T11:44:17.915Z,6.30
2023-01-21T11:49:30.302Z,5.13
2023-01-21T11:54:40.633Z,5.40
2023-01-21T11:59:48.717Z,8.80
2023-01-21T12:04:58.488Z,7.70
2023-01-21T12:10:09.128Z,8.18
2023-01-21T12:15:34.803Z,7.05
2023-01-21T12:20:50.972Z,7.25
2023-01-21T12:26:01.331Z,5.95
2023-01-21T12:31:23.768Z,6.38
2023-01-21T12:36:33.358Z,5.47
2023-01-21T12:41:40.673Z,6.32
2023-01-21T12:46:49.826Z,7.93
2023-01-21T12:51:59.129Z,9.63
2023-01-21T12:57:15.017Z,9.65
2023-01-21T13:02:25.310Z,11.70
2023-01-21T13:07:44.336Z,8.85
2023-01-21T13:12:53.249Z,13.63
2023-01-21T13:18:02.182Z,13.93
2023-01-21T13:23:18.633Z,10.48
2023-01-21T13:28:27.488Z,11.90
2023-01-21T13:33:43.466Z,14.23
2023-01-21T13:39:00.469Z,16.92
2023-01-21T13:44:37.711Z,17.23
2023-01-21T13:50:18.083Z,9.95
2023-01-21T13:55:39.665Z,11.68
2023-01-21T14:00:48.202Z,9.75
2023-01-21T14:05:58.720Z,8.25
2023-01-21T14:11:11.398Z,7.80
2023-01-21T14:16:36.458Z,9.85
2023-01-21T14:22:15.136Z,9.63
2023-01-21T14:27:33.541Z,9.38
2023-01-21T14:32:43.194Z,11.77
2023-01-21T14:37:55.545Z,14.43
2023-01-21T14:43:01.679Z,13.05
2023-01-21T14:48:29.992Z,17.45
2023-01-21T14:53:44.927Z,16.35
2023-01-21T14:58:53.843Z,9.63
2023-01-21T15:03:59.749Z,9.73
2023-01-21T15:09:06.101Z,18.73
2023-01-21T15:14:16.902Z,25.92
2023-01-21T15:19:30.471Z,33.10
2023-01-21T15:24:41.942Z,22.27
2023-01-21T15:30:08.860Z,19.52
2023-01-21T15:35:25.843Z,25.83
2023-01-21T15:40:38.489Z,26.05
2023-01-21T15:45:51.052Z,33.45
2023-01-21T15:51:02.325Z,34.92
2023-01-21T15:56:23.828Z,41.67
2023-01-21T16:01:44.020Z,40.72
2023-01-21T16:07:13.151Z,43.88
2023-01-21T16:12:26.070Z,46.60
2023-01-21T16:17:54.114Z,48.05
2023-01-21T16:23:02.374Z,44.95
2023-01-21T16:28:07.033Z,38.20
2023-01-21T16:33:20.989Z,91.22
2023-01-21T16:38:27.685Z,103.03
2023-01-21T16:43:33.081Z,46.45
2023-01-21T16:48:39.087Z,69.75
2023-01-21T16:53:43.862Z,81.15
2023-01-21T16:58:48.907Z,78.28
2023-01-21T17:03:55.612Z,75.50
2023-01-21T17:09:05.171Z,45.17
2023-01-21T17:14:11.584Z,54.78
2023-01-21T17:19:25.204Z,38.65
2023-01-21T17:24:32.520Z,43.08
2023-01-21T17:29:37.457Z,42.70
2023-01-21T17:34:43.878Z,29.13
2023-01-21T17:40:01.264Z,24.73
2023-01-21T17:45:07.616Z,20.60
2023-01-21T17:50:22.545Z,20.85
2023-01-21T17:55:31.735Z,18.58
2023-01-21T18:00:41.093Z,20.08
2023-01-21T18:05:47.072Z,19.58
2023-01-21T18:10:52.220Z,17.83
2023-01-21T18:15:56.729Z,16.50
2023-01-21T18:21:03.209Z,16.92
2023-01-21T18:26:15.160Z,16.25
2023-01-21T18:31:19.855Z,18.05
2023-01-21T18:36:25.935Z,14.40
2023-01-21T18:41:30.423Z,13.63
2023-01-21T18:46:39.583Z,31.95
2023-01-21T18:51:46.153Z,16.38
2023-01-21T18:56:50.680Z,17.65
2023-01-21T19:01:55.528Z,14.50
2023-01-21T19:07:01.501Z,15.48
2023-01-21T19:12:06.795Z,15.20
2023-01-21T19:17:13.732Z,16.38
2023-01-21T19:22:19.629Z,23.13
2023-01-21T19:32:31.274Z,41.28
2023-01-21T19:37:40.218Z,36.78
2023-01-21T19:42:44.803Z,34.97
2023-01-21T19:47:52.547Z,37.90
2023-01-21T19:52:58.603Z,32.97
2023-01-21T19:58:05.264Z,39.80
2023-01-21T20:03:12.346Z,37.90
2023-01-21T20:08:21.859Z,49.72
2023-01-21T20:13:31.405Z,48.67
2023-01-21T20:18:35.992Z,34.55
2023-01-21T20:23:41.996Z,37.97
2023-01-21T20:28:51.511Z,36.88
2023-01-21T20:33:56.614Z,28.17
2023-01-21T20:39:02.595Z,31.83
2023-01-21T20:44:07.221Z,27.88
2023-01-21T20:49:12.520Z,28.83
2023-01-21T20:54:20.101Z,32.88
2023-01-21T20:59:24.707Z,36.17
2023-01-21T21:04:30.117Z,33.70
2023-01-21T21:09:36.447Z,35.70
2023-01-21T21:14:41.109Z,32.05
2023-01-21T21:19:45.585Z,34.33
2023-01-21T21:24:51.485Z,39.65
2023-01-21T21:29:59.304Z,42.78
2023-01-21T21:35:03.959Z,57.85
2023-01-21T21:40:12.033Z,61.92
2023-01-21T21:45:16.917Z,46.33
2023-01-21T21:50:21.429Z,46.23
2023-01-21T21:55:27.301Z,50.78
2023-01-21T22:00:31.774Z,58.25
2023-01-21T22:05:37.742Z,52.55
2023-01-21T22:10:43.722Z,53.40
2023-01-21T22:15:54.822Z,52.20
2023-01-21T22:21:01.547Z,47.75
2023-01-21T22:26:09.575Z,48.28
2023-01-21T22:31:17.111Z,47.53
2023-01-21T22:36:23.818Z,39.88
2023-01-21T22:41:30.047Z,34.03
2023-01-21T22:46:35.962Z,35.53
2023-01-21T22:51:40.243Z,33.75
2023-01-21T22:56:52.510Z,32.25
2023-01-21T23:01:57.271Z,36.55
2023-01-21T23:07:01.629Z,32.17
2023-01-21T23:12:09.261Z,32.00
2023-01-21T23:17:13.785Z,31.30
2023-01-21T23:22:18.137Z,23.10
2023-01-21T23:27:24.019Z,27.42
2023-01-21T23:32:28.470Z,20.98
2023-01-21T23:37:32.987Z,20.90
2023-01-21T23:42:38.841Z,22.30
2023-01-21T23:47:43.300Z,22.27
2023-01-21T23:52:47.722Z,23.95
2023-01-21T23:57:53.502Z,23.35
